Time;durP1;ratioP1;P1;durP2;ratioP2;P2;SDS_P1;SDS_P2;PMS_P1;PMS_P2;Temp;Humidity;BMP_temperature;BMP_pressure;BME280_temperature;BME280_humidity;BME280_pressure;Samples;Min_cycle;Max_cycle;Signal;HPM_P1;HPM_P2
2022/04/25 00:14:32;;;;;;;14.43;5.60;;;;;;;11.23;75.30;99403.33;714172;1174;114905;-80
2022/04/25 00:29:37;;;;;;;14.57;5.33;;;;;;;11.13;75.88;99383.30;714156;1173;114236;-79
2022/04/25 00:44:41;;;;;;;9.65;4.50;;;;;;;11.09;76.30;99379.35;713396;1174;114908;-79
2022/04/25 00:59:45;;;;;;;9.40;3.93;;;;;;;11.09;76.58;99371.48;713467;1174;113712;-79
2022/04/25 01:15:00;;;;;;;6.98;3.60;;;;;;;11.06;77.08;99368.34;713597;1174;114504;-79
2022/04/25 01:30:04;;;;;;;10.07;4.20;;;;;;;11.02;77.67;99353.91;713496;1173;114700;-79
2022/04/25 01:45:08;;;;;;;15.23;5.10;;;;;;;11.00;77.65;99356.70;713967;1174;115055;-79
2022/04/25 02:00:12;;;;;;;19.08;6.30;;;;;;;11.05;77.49;99354.41;713700;1174;114836;-79
2022/04/25 02:15:16;;;;;;;15.53;5.70;;;;;;;11.04;77.98;99349.33;714408;1174;114666;-80
2022/04/25 02:30:20;;;;;;;9.57;4.07;;;;;;;10.99;77.30;99355.89;714089;1174;114747;-80
2022/04/25 02:45:23;;;;;;;5.80;3.70;;;;;;;11.00;77.57;99340.95;713328;1174;113757;-79
2022/04/25 03:16:19;;;;;;;6.03;2.80;;;;;;;10.92;77.78;99349.63;708707;1174;113603;-81
2022/04/25 03:31:23;;;;;;;10.70;4.43;;;;;;;10.92;77.48;99344.38;709345;1183;113890;-81
2022/04/25 03:46:27;;;;;;;6.95;3.50;;;;;;;10.97;77.07;99338.66;708951;1181;114971;-75
2022/04/25 04:01:32;;;;;;;14.90;7.20;;;;;;;10.93;77.17;99339.97;709111;1184;114728;-75
2022/04/25 04:16:36;;;;;;;20.95;7.35;;;;;;;10.90;77.12;99356.01;708277;1181;114827;-76
2022/04/25 04:31:40;;;;;;;10.95;4.90;;;;;;;10.78;77.76;99368.60;709432;1183;114410;-75
2022/04/25 04:46:43;;;;;;;10.57;4.53;;;;;;;10.75;77.18;99390.72;709196;1184;115032;-76
2022/04/25 05:01:47;;;;;;;10.30;4.70;;;;;;;10.78;78.20;99395.67;708913;1182;114467;-76
2022/04/25 05:16:51;;;;;;;9.30;4.60;;;;;;;10.86;78.21;99415.03;708060;1184;115182;-85
2022/04/25 05:31:55;;;;;;;11.60;6.55;;;;;;;11.01;77.54;99425.73;709640;1183;113766;-81
2022/04/25 05:47:10;;;;;;;7.10;4.80;;;;;;;11.07;77.79;99430.36;709243;1182;114641;-81
2022/04/25 06:02:17;;;;;;;12.70;8.40;;;;;;;11.04;77.13;99444.63;709330;1182;113860;-82
2022/04/25 06:17:20;;;;;;;7.40;4.90;;;;;;;11.22;77.33;99454.22;710007;1183;115295;-76
2022/04/25 06:32:27;;;;;;;9.60;5.30;;;;;;;11.27;76.86;99451.91;709390;1184;114304;-82
2022/04/25 06:47:30;;;;;;;14.05;5.15;;;;;;;11.31;77.64;99442.75;710909;1182;114597;-83
2022/04/25 07:02:33;;;;;;;9.03;3.85;;;;;;;11.70;77.42;99455.27;710481;1182;114514;-81
2022/04/25 07:17:37;;;;;;;21.70;7.57;;;;;;;11.86;76.46;99461.53;709377;1184;114467;-80
2022/04/25 07:32:41;;;;;;;30.85;14.50;;;;;;;12.03;75.59;99467.66;711491;1182;115724;-82
2022/04/25 07:47:45;;;;;;;7.40;4.15;;;;;;;12.33;74.52;99474.04;711892;1182;114915;-81
2022/04/25 08:02:48;;;;;;;8.65;4.35;;;;;;;12.87;73.47;99470.79;712135;1182;115764;-82
2022/04/25 08:18:01;;;;;;;8.60;2.50;;;;;;;13.14;73.34;99485.34;711445;1183;114879;-82
2022/04/25 08:33:07;;;;;;;4.65;2.95;;;;;;;13.38;72.29;99488.88;711999;1182;114596;-82
2022/04/25 08:48:12;;;;;;;7.05;3.30;;;;;;;13.71;70.97;99503.66;711085;1184;114687;-78
2022/04/25 09:03:15;;;;;;;6.30;3.70;;;;;;;13.97;69.42;99513.86;710534;1182;114160;-81
2022/04/25 09:18:20;;;;;;;9.20;4.10;;;;;;;14.00;68.49;99510.05;711335;1183;114338;-81
2022/04/25 09:33:24;;;;;;;4.60;3.00;;;;;;;14.11;67.50;99510.45;711703;1184;115370;-81
2022/04/25 09:48:28;;;;;;;4.60;3.20;;;;;;;13.91;68.12;99531.21;710869;1184;113960;-85
2022/04/25 10:03:34;;;;;;;15.75;8.00;;;;;;;13.75;68.89;99518.96;711301;1182;115607;-84
2022/04/25 10:18:45;;;;;;;58.40;20.00;;;;;;;14.02;69.20;99527.34;711353;1182;114084;-82
2022/04/25 10:33:59;;;;;;;39.65;20.30;;;;;;;14.57;68.74;99535.12;710262;1184;115856;-79
2022/04/25 10:49:09;;;;;;;56.83;19.90;;;;;;;15.07;67.40;99546.86;710541;1184;114982;-79
2022/04/25 11:04:15;;;;;;;14.15;7.90;;;;;;;15.01;67.03;99568.71;709778;1181;114736;-75
2022/04/25 11:19:22;;;;;;;9.10;5.40;;;;;;;14.81;68.02;99589.55;710114;1182;114959;-80
2022/04/25 11:34:27;;;;;;;9.35;4.68;;;;;;;14.62;68.46;99610.14;710378;1181;114920;-80
2022/04/25 11:49:38;;;;;;;16.60;5.00;;;;;;;14.24;68.80;99630.37;710284;1182;114079;-80
2022/04/25 12:04:42;;;;;;;9.60;3.75;;;;;;;14.18;69.33;99652.19;709476;1183;118264;-79
2022/04/25 12:19:57;;;;;;;10.40;4.35;;;;;;;14.23;70.27;99657.77;710072;1183;117805;-80
2022/04/25 12:35:01;;;;;;;20.40;10.10;;;;;;;13.67;71.21;99660.50;709530;1184;115217;-80
2022/04/25 12:50:06;;;;;;;8.30;4.10;;;;;;;13.45;72.66;99671.59;709909;1184;114714;-80
2022/04/25 13:05:15;;;;;;;12.10;5.90;;;;;;;13.42;72.83;99673.73;709485;1182;115359;-80
2022/04/25 13:20:21;;;;;;;7.90;4.10;;;;;;;12.90;74.54;99680.21;709367;1183;114195;-81
2022/04/25 13:35:25;;;;;;;12.30;5.90;;;;;;;12.90;76.25;99681.02;709918;1183;115088;-79
2022/04/25 13:50:29;;;;;;;15.10;4.90;;;;;;;13.18;75.76;99695.66;709169;1182;115878;-78
2022/04/25 14:05:37;;;;;;;15.40;6.90;;;;;;;13.15;76.04;99716.05;709042;1182;115834;-78
2022/04/25 14:20:41;;;;;;;18.50;9.10;;;;;;;13.06;76.66;99721.51;708508;1183;115814;-78
2022/04/25 14:35:44;;;;;;;25.45;14.45;;;;;;;12.60;77.38;99738.59;708713;1182;114750;-77
2022/04/25 15:06:10;;;;;;;10.05;6.20;;;;;;;11.96;81.52;99743.48;709904;1182;115089;-78
2022/04/25 15:21:14;;;;;;;21.20;12.40;;;;;;;11.78;84.11;99760.09;708784;1182;115468;-78
2022/04/25 15:36:24;;;;;;;25.00;11.35;;;;;;;11.58;84.71;99779.69;708837;1182;114318;-78
2022/04/25 15:51:29;;;;;;;38.20;14.55;;;;;;;11.57;85.22;99791.98;708959;1182;115824;-78
2022/04/25 16:06:33;;;;;;;35.30;13.00;;;;;;;11.57;86.68;99806.93;708791;1174;114415;-78
2022/04/25 16:21:36;;;;;;;20.57;11.00;;;;;;;11.34;87.34;99823.17;709188;1182;115939;-77
2022/04/25 16:36:40;;;;;;;96.00;35.40;;;;;;;11.40;88.40;99814.70;708544;1181;114965;-75
2022/04/25 16:51:44;;;;;;;31.75;13.60;;;;;;;11.37;88.91;99829.93;709026;1183;114210;-80
2022/04/25 17:06:48;;;;;;;27.77;10.13;;;;;;;11.23;88.41;99837.37;709474;1183;114360;-80
2022/04/25 17:21:52;;;;;;;23.60;11.35;;;;;;;11.17;88.03;99847.65;709316;1181;115608;-81
